Time;durP1;ratioP1;P1;durP2;ratioP2;P2;SDS_P1;SDS_P2;PMS_P1;PMS_P2;Temp;Humidity;BMP_temperature;BMP_pressure;BME280_temperature;BME280_humidity;BME280_pressure;Samples;Min_cycle;Max_cycle;Signal;HPM_P1;HPM_P2
2021/06/26 00:00:06;;;;;;;;;;;15.20;71.80;;;;;;5034421;28;20009;-63
2021/06/26 00:02:36;;;;;;;;;;;15.10;72.10;;;;;;5033978;28;20341;-63
2021/06/26 00:05:02;;;;;;;;;;;15.10;72.20;;;;;;5034291;28;19917;-63
2021/06/26 00:07:27;;;;;;;;;;;15.10;72.30;;;;;;5033938;28;20323;-63
2021/06/26 00:09:53;;;;;;;;;;;15.10;72.40;;;;;;5033809;28;19917;-63
2021/06/26 00:12:19;;;;;;;;;;;15.00;72.50;;;;;;5034132;28;20339;-64
2021/06/26 00:14:45;;;;;;;;;;;15.00;72.50;;;;;;5032962;28;19921;-63
2021/06/26 00:17:11;;;;;;;;;;;14.90;72.60;;;;;;5033739;28;19921;-63
2021/06/26 00:19:37;;;;;;;;;;;14.90;72.80;;;;;;5034257;28;20289;-63
2021/06/26 00:22:02;;;;;;;;;;;14.80;73.00;;;;;;5033630;28;19924;-63
2021/06/26 00:24:28;;;;;;;;;;;14.80;73.40;;;;;;5034053;28;20285;-62
2021/06/26 00:26:54;;;;;;;;;;;14.80;73.70;;;;;;5033699;28;19923;-63
2021/06/26 00:29:19;;;;;;;;;;;14.80;74.10;;;;;;5033283;28;20384;-63
2021/06/26 00:31:45;;;;;;;;;;;14.90;74.30;;;;;;5033826;28;19917;-63
2021/06/26 00:34:10;;;;;;;;;;;15.00;74.40;;;;;;5033219;28;20016;-63
2021/06/26 00:36:36;;;;;;;;;;;15.00;74.30;;;;;;5033524;28;19970;-63
2021/06/26 00:39:01;;;;;;;;;;;15.00;74.20;;;;;;5033605;28;19943;-63
2021/06/26 00:41:27;;;;;;;;;;;15.00;74.30;;;;;;5033256;28;20305;-63
2021/06/26 00:43:53;;;;;;;;;;;14.90;74.30;;;;;;5033921;28;20386;-61
2021/06/26 00:46:18;;;;;;;;;;;14.90;74.50;;;;;;5033723;28;19923;-61
2021/06/26 00:48:44;;;;;;;;;;;14.90;74.70;;;;;;5032883;28;19971;-61
2021/06/26 00:51:09;;;;;;;;;;;14.80;74.70;;;;;;5033429;28;20011;-61
2021/06/26 00:53:35;;;;;;;;;;;14.70;74.80;;;;;;5033238;28;19924;-61
2021/06/26 00:56:01;;;;;;;;;;;14.70;75.00;;;;;;5015231;28;19933;-61
2021/06/26 00:58:27;;;;;;;;;;;14.60;75.20;;;;;;5033020;28;19951;-61
2021/06/26 01:00:53;;;;;;;;;;;14.50;75.50;;;;;;5032947;28;19987;-61
2021/06/26 01:03:19;;;;;;;;;;;14.50;75.70;;;;;;5033118;28;19917;-61
2021/06/26 01:05:44;;;;;;;;;;;14.40;75.80;;;;;;5033215;28;20380;-60
2021/06/26 01:08:10;;;;;;;;;;;14.40;76.00;;;;;;5032278;28;19921;-61
2021/06/26 01:10:36;;;;;;;;;;;14.40;76.20;;;;;;5032021;28;20453;-61
2021/06/26 01:13:02;;;;;;;;;;;14.30;76.50;;;;;;5032859;28;20396;-61
2021/06/26 01:15:28;;;;;;;;;;;14.30;76.80;;;;;;5032618;28;20060;-61
2021/06/26 01:17:54;;;;;;;;;;;14.40;77.00;;;;;;5032849;28;19992;-61
2021/06/26 01:20:20;;;;;;;;;;;14.40;77.20;;;;;;5032521;28;20392;-61
2021/06/26 01:22:54;;;;;;;;;;;14.40;77.30;;;;;;5032950;28;19975;-61
2021/06/26 01:25:22;;;;;;;;;;;14.50;77.50;;;;;;5014593;28;20012;-61
2021/06/26 01:27:48;;;;;;;;;;;14.50;77.50;;;;;;5031696;28;19979;-61
2021/06/26 01:30:13;;;;;;;;;;;14.60;77.60;;;;;;5032770;28;19917;-60
2021/06/26 01:32:39;;;;;;;;;;;14.60;77.40;;;;;;5032286;28;20000;-61
2021/06/26 01:35:06;;;;;;;;;;;14.50;77.20;;;;;;5032496;28;19928;-61
2021/06/26 01:37:31;;;;;;;;;;;14.40;77.40;;;;;;5032405;28;19917;-61
2021/06/26 01:39:57;;;;;;;;;;;14.30;77.60;;;;;;5032146;28;20025;-61
2021/06/26 01:42:23;;;;;;;;;;;14.30;77.90;;;;;;5032457;28;20292;-61
2021/06/26 01:44:48;;;;;;;;;;;14.20;77.90;;;;;;5031819;28;19928;-61
2021/06/26 01:47:14;;;;;;;;;;;14.10;78.10;;;;;;5032109;28;20438;-61
2021/06/26 01:49:39;;;;;;;;;;;14.10;78.20;;;;;;5032463;28;19917;-61
2021/06/26 01:52:07;;;;;;;;;;;14.00;78.30;;;;;;5031910;28;20000;-61
2021/06/26 01:54:33;;;;;;;;;;;14.00;78.50;;;;;;5032153;28;19928;-61
2021/06/26 01:56:58;;;;;;;;;;;13.90;78.70;;;;;;5031604;28;19917;-61
2021/06/26 01:59:24;;;;;;;;;;;13.90;78.90;;;;;;5032168;28;19917;-61
2021/06/26 02:01:49;;;;;;;;;;;13.80;79.00;;;;;;5032130;28;19917;-60
2021/06/26 02:04:15;;;;;;;;;;;13.80;79.20;;;;;;5031640;28;19917;-61
2021/06/26 02:06:41;;;;;;;;;;;13.80;79.40;;;;;;5031931;28;20027;-61
2021/06/26 02:09:07;;;;;;;;;;;13.80;79.70;;;;;;5031905;28;20026;-61
2021/06/26 02:11:35;;;;;;;;;;;13.80;80.00;;;;;;5031612;28;19917;-61
2021/06/26 02:14:01;;;;;;;;;;;13.80;80.10;;;;;;5031766;28;19971;-61
2021/06/26 02:16:27;;;;;;;;;;;13.80;80.10;;;;;;5031462;28;20397;-61
2021/06/26 02:18:53;;;;;;;;;;;13.80;80.10;;;;;;5031634;28;19956;-61
2021/06/26 02:21:19;;;;;;;;;;;13.80;80.20;;;;;;5031873;28;19917;-61
2021/06/26 02:23:44;;;;;;;;;;;13.70;80.30;;;;;;5031288;28;19968;-61
2021/06/26 02:26:10;;;;;;;;;;;13.70;80.50;;;;;;5031740;28;20380;-60
2021/06/26 02:28:36;;;;;;;;;;;13.70;80.60;;;;;;5031553;28;19917;-61
2021/06/26 02:31:01;;;;;;;;;;;13.70;80.70;;;;;;5031403;28;19917;-60
2021/06/26 02:33:27;;;;;;;;;;;13.60;80.80;;;;;;5031489;28;20634;-61
2021/06/26 02:35:52;;;;;;;;;;;13.60;80.90;;;;;;5031278;28;19925;-61
2021/06/26 02:38:18;;;;;;;;;;;13.60;81.60;;;;;;5031162;28;19917;-61
2021/06/26 02:40:43;;;;;;;;;;;13.60;81.30;;;;;;5013845;28;20043;-61
2021/06/26 02:43:09;;;;;;;;;;;13.60;81.50;;;;;;5031012;28;19929;-61
2021/06/26 02:45:34;;;;;;;;;;;13.50;81.70;;;;;;5031624;28;19921;-61
2021/06/26 02:48:00;;;;;;;;;;;13.60;82.10;;;;;;5031270;28;20425;-60
2021/06/26 02:50:26;;;;;;;;;;;13.60;82.20;;;;;;5031079;28;20336;-61
2021/06/26 02:52:51;;;;;;;;;;;13.70;82.10;;;;;;5031484;28;20365;-61
2021/06/26 02:55:17;;;;;;;;;;;13.70;82.00;;;;;;5031259;28;19921;-63
2021/06/26 02:57:42;;;;;;;;;;;13.70;81.90;;;;;;5030822;28;19918;-63
2021/06/26 03:00:09;;;;;;;;;;;13.70;81.90;;;;;;5031592;28;19921;-63
2021/06/26 03:02:34;;;;;;;;;;;13.60;81.90;;;;;;5031016;28;19975;-63
2021/06/26 03:05:00;;;;;;;;;;;13.60;82.10;;;;;;5031249;28;19921;-63
2021/06/26 03:07:25;;;;;;;;;;;13.50;82.30;;;;;;5031241;28;19968;-63
2021/06/26 03:09:51;;;;;;;;;;;13.50;83.00;;;;;;5030309;28;19921;-63
2021/06/26 03:12:16;;;;;;;;;;;13.50;82.80;;;;;;5031498;28;20301;-63
2021/06/26 03:14:42;;;;;;;;;;;13.60;83.20;;;;;;5031061;28;19921;-63
2021/06/26 03:17:07;;;;;;;;;;;13.60;83.30;;;;;;5030490;28;19933;-62
2021/06/26 03:19:33;;;;;;;;;;;13.70;83.30;;;;;;5031240;28;19920;-62
2021/06/26 03:21:59;;;;;;;;;;;13.70;83.10;;;;;;5030976;28;19932;-61
2021/06/26 03:24:24;;;;;;;;;;;13.70;83.20;;;;;;5031042;28;19932;-61
2021/06/26 03:26:50;;;;;;;;;;;13.80;83.40;;;;;;5030925;28;19927;-61
2021/06/26 03:29:15;;;;;;;;;;;13.80;83.60;;;;;;5030695;28;19913;-61
2021/06/26 03:31:41;;;;;;;;;;;13.90;83.80;;;;;;5031143;28;20324;-61
2021/06/26 03:34:07;;;;;;;;;;;13.90;83.70;;;;;;5031147;28;20425;-61
2021/06/26 03:36:32;;;;;;;;;;;14.00;83.80;;;;;;5030624;28;19967;-61
2021/06/26 03:38:58;;;;;;;;;;;14.10;83.90;;;;;;5030934;28;19921;-61
2021/06/26 03:41:25;;;;;;;;;;;14.10;83.90;;;;;;5031129;28;19917;-61
2021/06/26 03:43:51;;;;;;;;;;;14.20;83.80;;;;;;5029253;28;20325;-61
2021/06/26 03:46:17;;;;;;;;;;;14.30;83.80;;;;;;5030824;28;20381;-61
2021/06/26 03:48:43;;;;;;;;;;;14.30;83.60;;;;;;5030353;28;19932;-61
2021/06/26 03:51:08;;;;;;;;;;;14.30;83.50;;;;;;5015858;28;20320;-61
2021/06/26 03:53:34;;;;;;;;;;;14.30;83.70;;;;;;5034249;28;20368;-61
2021/06/26 03:56:00;;;;;;;;;;;14.30;83.70;;;;;;5034026;28;19947;-61
2021/06/26 03:58:26;;;;;;;;;;;14.40;83.90;;;;;;5034260;28;19943;-61
2021/06/26 04:00:52;;;;;;;;;;;14.40;84.00;;;;;;5034442;28;20274;-61
2021/06/26 04:03:18;;;;;;;;;;;14.50;84.10;;;;;;5016276;28;20447;-61
2021/06/26 04:05:44;;;;;;;;;;;14.50;84.10;;;;;;5034448;28;19953;-61
2021/06/26 04:08:10;;;;;;;;;;;14.70;84.30;;;;;;5033501;28;20600;-61
2021/06/26 04:10:36;;;;;;;;;;;14.80;84.30;;;;;;5034013;28;19925;-61
2021/06/26 04:13:02;;;;;;;;;;;14.90;84.30;;;;;;5034207;28;19921;-61
2021/06/26 04:15:28;;;;;;;;;;;15.00;84.30;;;;;;5033587;28;20435;-61
2021/06/26 04:17:53;;;;;;;;;;;15.10;84.20;;;;;;5033875;28;20391;-61
2021/06/26 04:20:19;;;;;;;;;;;15.20;84.10;;;;;;5033668;28;19921;-61
2021/06/26 04:22:45;;;;;;;;;;;15.40;84.30;;;;;;5033959;28;19925;-61
2021/06/26 04:25:12;;;;;;;;;;;15.50;84.20;;;;;;5016207;28;20309;-61
2021/06/26 04:27:37;;;;;;;;;;;15.70;84.10;;;;;;5033101;28;19930;-61
2021/06/26 04:30:03;;;;;;;;;;;15.80;83.80;;;;;;5033848;28;19921;-61
2021/06/26 04:32:29;;;;;;;;;;;15.90;83.60;;;;;;5033908;28;19967;-61
2021/06/26 04:34:55;;;;;;;;;;;16.00;83.40;;;;;;5032130;28;19936;-61
2021/06/26 04:37:21;;;;;;;;;;;16.10;83.30;;;;;;5033478;28;19924;-61
2021/06/26 04:39:47;;;;;;;;;;;16.20;83.10;;;;;;5033309;28;19921;-61
2021/06/26 04:42:14;;;;;;;;;;;16.30;83.00;;;;;;5033496;28;19940;-63
2021/06/26 04:44:40;;;;;;;;;;;16.30;82.90;;;;;;5033465;28;20393;-61
2021/06/26 04:47:06;;;;;;;;;;;16.40;82.90;;;;;;5032718;28;20061;-61
2021/06/26 04:49:32;;;;;;;;;;;16.50;82.90;;;;;;5033592;28;20278;-61
2021/06/26 04:51:58;;;;;;;;;;;16.60;82.70;;;;;;5033480;28;19925;-61
2021/06/26 04:54:23;;;;;;;;;;;16.70;82.70;;;;;;5032882;28;20012;-61
2021/06/26 04:56:49;;;;;;;;;;;16.80;82.80;;;;;;5015365;28;19917;-61
2021/06/26 04:59:14;;;;;;;;;;;17.10;82.90;;;;;;5032958;28;19924;-61
2021/06/26 05:01:40;;;;;;;;;;;17.20;82.70;;;;;;5032063;28;19917;-63
2021/06/26 05:04:05;;;;;;;;;;;17.30;81.90;;;;;;5033189;28;20095;-63
2021/06/26 05:06:31;;;;;;;;;;;17.40;81.50;;;;;;5032822;28;19924;-63
2021/06/26 05:08:58;;;;;;;;;;;17.40;81.10;;;;;;5032702;28;19924;-63
2021/06/26 05:11:23;;;;;;;;;;;17.40;81.00;;;;;;5032792;28;19957;-63
2021/06/26 05:13:49;;;;;;;;;;;17.50;81.00;;;;;;5032882;28;19971;-63
2021/06/26 05:16:14;;;;;;;;;;;17.60;80.90;;;;;;5032977;28;19937;-63
2021/06/26 05:18:40;;;;;;;;;;;17.60;80.80;;;;;;5032193;28;19968;-63
2021/06/26 05:21:06;;;;;;;;;;;17.70;80.80;;;;;;5032952;28;19917;-63
2021/06/26 05:23:31;;;;;;;;;;;17.70;80.70;;;;;;5032798;28;19940;-63
2021/06/26 05:25:57;;;;;;;;;;;17.80;80.60;;;;;;5032446;28;19921;-64
2021/06/26 05:28:22;;;;;;;;;;;17.90;80.40;;;;;;5032496;28;20373;-63
2021/06/26 05:30:48;;;;;;;;;;;18.00;80.40;;;;;;5014710;28;19932;-63
2021/06/26 05:33:14;;;;;;;;;;;18.10;80.20;;;;;;5032698;28;19918;-63
2021/06/26 05:35:39;;;;;;;;;;;18.20;80.20;;;;;;5031381;28;19924;-64
2021/06/26 05:38:05;;;;;;;;;;;18.30;80.00;;;;;;5031829;28;19921;-63
2021/06/26 05:40:30;;;;;;;;;;;18.40;79.80;;;;;;5032562;28;19921;-64
2021/06/26 05:42:56;;;;;;;;;;;18.40;79.70;;;;;;5014537;28;19924;-63
2021/06/26 05:45:22;;;;;;;;;;;18.50;79.60;;;;;;5032125;28;19975;-64
2021/06/26 05:47:47;;;;;;;;;;;18.80;80.30;;;;;;5032168;28;19928;-63
2021/06/26 05:50:13;;;;;;;;;;;19.10;80.60;;;;;;5031842;28;19924;-63
2021/06/26 05:52:48;;;;;;;;;;;19.40;80.20;;;;;;5032291;28;19987;-63
2021/06/26 05:55:14;;;;;;;;;;;19.60;79.10;;;;;;5032261;28;20329;-63
2021/06/26 05:57:40;;;;;;;;;;;20.00;79.50;;;;;;5031735;28;20013;-63
2021/06/26 06:00:06;;;;;;;;;;;20.70;80.20;;;;;;5032256;28;19917;-63
2021/06/26 06:02:39;;;;;;;;;;;21.50;80.00;;;;;;5031803;28;19927;-64
2021/06/26 06:05:07;;;;;;;;;;;22.30;78.50;;;;;;5014343;28;19987;-64
2021/06/26 06:07:33;;;;;;;;;;;22.80;75.70;;;;;;5031866;28;20300;-64
2021/06/26 06:09:59;;;;;;;;;;;23.30;75.20;;;;;;5031630;28;19918;-64
2021/06/26 06:12:24;;;;;;;;;;;23.60;72.70;;;;;;5031754;28;19925;-64
2021/06/26 06:14:50;;;;;;;;;;;23.80;71.00;;;;;;5031966;28;19921;-63
2021/06/26 06:17:15;;;;;;;;;;;23.80;69.60;;;;;;5031401;28;19979;-64
2021/06/26 06:19:41;;;;;;;;;;;24.00;70.00;;;;;;5031825;28;19917;-64
2021/06/26 06:22:08;;;;;;;;;;;24.60;70.20;;;;;;5031471;28;20035;-64
2021/06/26 06:24:35;;;;;;;;;;;24.90;68.30;;;;;;5031764;28;19917;-64
2021/06/26 06:27:00;;;;;;;;;;;24.90;67.00;;;;;;5031460;28;19920;-64
2021/06/26 06:29:26;;;;;;;;;;;24.80;66.00;;;;;;5031232;28;19936;-64
2021/06/26 06:31:51;;;;;;;;;;;24.70;65.00;;;;;;5013859;28;19917;-64
2021/06/26 06:34:17;;;;;;;;;;;24.50;64.20;;;;;;5031456;28;19921;-64
2021/06/26 06:36:42;;;;;;;;;;;24.30;63.90;;;;;;5030990;28;20015;-63
2021/06/26 06:39:08;;;;;;;;;;;24.10;63.60;;;;;;5031605;28;19921;-64
2021/06/26 06:41:33;;;;;;;;;;;23.90;63.60;;;;;;5031109;28;19993;-64
2021/06/26 06:43:59;;;;;;;;;;;23.80;63.80;;;;;;5031735;28;19984;-62
2021/06/26 06:46:24;;;;;;;;;;;23.70;63.90;;;;;;5031424;28;19949;-63
2021/06/26 06:48:50;;;;;;;;;;;23.90;64.10;;;;;;5012969;28;19921;-62
2021/06/26 06:51:16;;;;;;;;;;;24.20;64.40;;;;;;5031504;28;19923;-63
2021/06/26 06:53:41;;;;;;;;;;;24.80;64.80;;;;;;5030623;28;20044;-62
2021/06/26 06:56:07;;;;;;;;;;;25.80;66.20;;;;;;5031460;28;20365;-62
2021/06/26 06:58:32;;;;;;;;;;;26.60;63.50;;;;;;5031234;28;19948;-63
2021/06/26 07:00:58;;;;;;;;;;;27.30;62.20;;;;;;5030970;28;19955;-62
2021/06/26 07:03:23;;;;;;;;;;;27.40;59.30;;;;;;5031248;28;19917;-63
2021/06/26 07:05:49;;;;;;;;;;;27.50;58.10;;;;;;5031428;28;19917;-63
2021/06/26 07:08:14;;;;;;;;;;;27.80;57.70;;;;;;5030752;28;19921;-63
2021/06/26 07:10:40;;;;;;;;;;;28.40;57.30;;;;;;5031031;28;19924;-60
2021/06/26 07:13:05;;;;;;;;;;;28.80;54.70;;;;;;5013172;28;20384;-61
2021/06/26 07:15:31;;;;;;;;;;;29.00;53.30;;;;;;5031028;28;19928;-63
2021/06/26 07:17:57;;;;;;;;;;;28.80;51.30;;;;;;5030777;28;19917;-63
2021/06/26 07:20:23;;;;;;;;;;;28.40;49.60;;;;;;5030748;28;19964;-63
2021/06/26 07:22:49;;;;;;;;;;;27.70;48.50;;;;;;5031274;28;19917;-62
2021/06/26 07:25:14;;;;;;;;;;;27.10;48.30;;;;;;5032540;28;19921;-62
2021/06/26 07:27:40;;;;;;;;;;;26.60;48.50;;;;;;5034317;28;19943;-62
2021/06/26 07:30:06;;;;;;;;;;;26.40;49.30;;;;;;5034954;28;19917;-63
2021/06/26 07:32:32;;;;;;;;;;;26.30;50.20;;;;;;5033190;28;20004;-63
2021/06/26 07:34:57;;;;;;;;;;;26.60;51.30;;;;;;5034765;28;20396;-62
2021/06/26 07:37:23;;;;;;;;;;;27.20;51.20;;;;;;5034670;28;20321;-63
2021/06/26 07:39:48;;;;;;;;;;;28.20;51.60;;;;;;5016790;28;19921;-63
2021/06/26 07:42:14;;;;;;;;;;;30.00;52.60;;;;;;5034818;28;19917;-63
2021/06/26 07:44:40;;;;;;;;;;;32.50;51.70;;;;;;5034430;28;20016;-61
2021/06/26 07:47:05;;;;;;;;;;;34.80;48.50;;;;;;5033822;28;20004;-64
2021/06/26 07:49:31;;;;;;;;;;;36.50;45.20;;;;;;5034711;28;20004;-64
2021/06/26 07:51:56;;;;;;;;;;;37.40;41.30;;;;;;5034186;28;20411;-62
2021/06/26 07:54:22;;;;;;;;;;;38.10;39.20;;;;;;5034347;28;20411;-61
2021/06/26 07:56:48;;;;;;;;;;;38.80;37.50;;;;;;5016646;28;19928;-61
2021/06/26 07:59:14;;;;;;;;;;;39.20;35.70;;;;;;5033809;28;19993;-62
2021/06/26 08:01:40;;;;;;;;;;;38.60;34.30;;;;;;5034379;28;20293;-61
2021/06/26 08:04:05;;;;;;;;;;;37.70;33.70;;;;;;5034141;28;20373;-61
2021/06/26 08:06:31;;;;;;;;;;;38.00;34.80;;;;;;5033867;28;19917;-61
2021/06/26 08:08:57;;;;;;;;;;;38.60;33.70;;;;;;5016236;28;19917;-61
2021/06/26 08:11:22;;;;;;;;;;;39.20;33.40;;;;;;5033704;28;19917;-62
2021/06/26 08:13:48;;;;;;;;;;;40.20;33.00;;;;;;5033944;28;19971;-62
2021/06/26 08:16:14;;;;;;;;;;;41.20;31.80;;;;;;5034106;28;20347;-62
2021/06/26 08:18:39;;;;;;;;;;;41.90;30.60;;;;;;5033448;28;20003;-62
2021/06/26 08:21:05;;;;;;;;;;;42.20;29.80;;;;;;5034271;28;20356;-62
2021/06/26 08:23:30;;;;;;;;;;;42.80;29.40;;;;;;5033957;28;20296;-62
2021/06/26 08:25:56;;;;;;;;;;;43.70;29.10;;;;;;5033532;28;19917;-62
2021/06/26 08:28:22;;;;;;;;;;;44.60;28.50;;;;;;5033625;28;19917;-63
2021/06/26 08:30:47;;;;;;;;;;;45.40;27.80;;;;;;5033760;28;19971;-63
2021/06/26 08:33:13;;;;;;;;;;;46.20;27.30;;;;;;5033220;28;19924;-63
2021/06/26 08:35:38;;;;;;;;;;;47.00;26.60;;;;;;5033362;28;20451;-62
2021/06/26 08:38:04;;;;;;;;;;;46.20;25.40;;;;;;5032975;28;19917;-62
2021/06/26 08:40:29;;;;;;;;;;;43.70;24.80;;;;;;5033618;28;20380;-62
2021/06/26 08:42:56;;;;;;;;;;;40.60;25.10;;;;;;5033260;28;19917;-63
2021/06/26 08:45:22;;;;;;;;;;;37.70;26.20;;;;;;5033027;28;19925;-61
2021/06/26 08:47:52;;;;;;;;;;;35.40;27.40;;;;;;5033275;28;20305;-63
2021/06/26 08:50:18;;;;;;;;;;;33.60;28.60;;;;;;5015496;28;20400;-60
2021/06/26 08:52:44;;;;;;;;;;;32.30;29.80;;;;;;5033405;28;19918;-61
2021/06/26 08:55:10;;;;;;;;;;;31.40;31.00;;;;;;5033230;28;19947;-62
2021/06/26 08:57:36;;;;;;;;;;;30.70;32.00;;;;;;5032557;28;20292;-64
2021/06/26 09:00:05;;;;;;;;;;;30.20;32.90;;;;;;5033355;28;20369;-64
2021/06/26 09:02:30;;;;;;;;;;;29.80;33.80;;;;;;5032777;28;20587;-64
2021/06/26 09:04:56;;;;;;;;;;;29.50;34.50;;;;;;5033098;28;19917;-64
2021/06/26 09:07:40;;;;;;;;;;;29.50;35.40;;;;;;5032815;28;20381;-64
2021/06/26 09:10:13;;;;;;;;;;;29.90;36.20;;;;;;5032582;28;20327;-64
2021/06/26 09:12:40;;;;;;;;;;;30.10;36.20;;;;;;5033162;28;20020;-64
2021/06/26 09:15:06;;;;;;;;;;;30.10;35.90;;;;;;5032387;28;19917;-64
2021/06/26 09:17:32;;;;;;;;;;;29.90;35.90;;;;;;5032743;28;19918;-64
2021/06/26 09:20:03;;;;;;;;;;;29.70;36.50;;;;;;5014861;28;19920;-64
2021/06/26 09:22:36;;;;;;;;;;;29.60;36.90;;;;;;5032873;28;19971;-64
2021/06/26 09:25:02;;;;;;;;;;;29.40;36.70;;;;;;5032294;28;19917;-64
2021/06/26 09:27:31;;;;;;;;;;;29.30;37.10;;;;;;5032520;28;19972;-64
2021/06/26 09:29:57;;;;;;;;;;;29.40;37.60;;;;;;5032681;28;19931;-64
2021/06/26 09:32:24;;;;;;;;;;;29.60;37.80;;;;;;5014597;28;19917;-64
2021/06/26 09:34:50;;;;;;;;;;;29.80;38.30;;;;;;5032485;28;19967;-64
2021/06/26 09:37:20;;;;;;;;;;;30.20;38.20;;;;;;5031729;28;19996;-62
2021/06/26 09:39:46;;;;;;;;;;;30.60;37.80;;;;;;5032676;28;20301;-64
2021/06/26 09:42:20;;;;;;;;;;;30.70;37.30;;;;;;5032481;28;19923;-64
2021/06/26 09:44:50;;;;;;;;;;;31.00;37.50;;;;;;5031805;28;19921;-64
2021/06/26 09:47:38;;;;;;;;;;;31.60;37.90;;;;;;5031676;28;19915;-64
2021/06/26 09:50:12;;;;;;;;;;;32.70;38.60;;;;;;5021564;28;19917;-62
2021/06/26 09:52:47;;;;;;;;;;;33.30;36.70;;;;;;5031106;28;19917;-62
2021/06/26 09:55:19;;;;;;;;;;;33.50;35.70;;;;;;5013771;28;19933;-62
2021/06/26 09:57:45;;;;;;;;;;;33.40;35.40;;;;;;5031834;28;19983;-62
2021/06/26 10:00:11;;;;;;;;;;;32.90;34.40;;;;;;5031421;28;20333;-62
2021/06/26 10:02:37;;;;;;;;;;;32.30;34.40;;;;;;5032121;28;20012;-61
2021/06/26 10:05:04;;;;;;;;;;;31.80;35.00;;;;;;5031830;28;19996;-61
2021/06/26 10:07:30;;;;;;;;;;;31.40;35.60;;;;;;5031392;28;20288;-61
2021/06/26 10:09:56;;;;;;;;;;;31.10;36.20;;;;;;5031917;28;19917;-62
2021/06/26 10:12:22;;;;;;;;;;;30.90;36.50;;;;;;5031404;28;19913;-62
2021/06/26 10:14:47;;;;;;;;;;;30.70;36.90;;;;;;5013591;28;19943;-62
2021/06/26 10:17:14;;;;;;;;;;;30.50;37.30;;;;;;5031431;28;20361;-62
2021/06/26 10:19:40;;;;;;;;;;;30.70;37.90;;;;;;5031430;28;20427;-62
2021/06/26 10:22:05;;;;;;;;;;;31.30;38.30;;;;;;5032033;28;19917;-63
2021/06/26 10:24:31;;;;;;;;;;;31.90;38.00;;;;;;5031747;28;20376;-62
2021/06/26 10:26:57;;;;;;;;;;;32.50;37.60;;;;;;5031035;28;19917;-63
2021/06/26 10:29:29;;;;;;;;;;;33.00;36.60;;;;;;5031592;28;19961;-63
2021/06/26 10:31:55;;;;;;;;;;;33.60;36.30;;;;;;5031231;28;19917;-63
2021/06/26 10:34:25;;;;;;;;;;;34.60;36.30;;;;;;5030078;28;19928;-63
2021/06/26 10:36:52;;;;;;;;;;;35.30;35.60;;;;;;5030800;28;19921;-64
2021/06/26 10:39:19;;;;;;;;;;;36.40;34.50;;;;;;5031492;28;19924;-63
2021/06/26 10:41:55;;;;;;;;;;;37.30;33.60;;;;;;5031454;28;19913;-63
2021/06/26 10:44:21;;;;;;;;;;;38.80;33.10;;;;;;5030780;28;20390;-64
2021/06/26 10:46:47;;;;;;;;;;;39.20;31.60;;;;;;5013679;28;19971;-64
2021/06/26 10:49:12;;;;;;;;;;;39.40;30.20;;;;;;5030929;28;19963;-64
2021/06/26 10:51:40;;;;;;;;;;;39.50;29.60;;;;;;5013747;28;19956;-63
2021/06/26 10:54:13;;;;;;;;;;;38.60;29.00;;;;;;5013533;28;19982;-63
2021/06/26 10:56:39;;;;;;;;;;;37.20;28.70;;;;;;5030808;28;19970;-63
2021/06/26 10:59:09;;;;;;;;;;;35.60;29.20;;;;;;5032266;28;19940;-63
2021/06/26 11:01:34;;;;;;;;;;;34.40;30.00;;;;;;5034984;28;19917;-63
2021/06/26 11:04:18;;;;;;;;;;;33.30;30.60;;;;;;5035344;28;19924;-62
2021/06/26 11:06:44;;;;;;;;;;;32.40;31.70;;;;;;5034537;28;20354;-63
2021/06/26 11:09:11;;;;;;;;;;;31.60;33.00;;;;;;5035270;28;20003;-63
2021/06/26 11:11:36;;;;;;;;;;;31.20;33.80;;;;;;5035236;28;20265;-63
2021/06/26 11:14:06;;;;;;;;;;;31.10;34.70;;;;;;5034615;28;19923;-63
2021/06/26 11:16:32;;;;;;;;;;;31.10;35.00;;;;;;5017680;28;20301;-63
2021/06/26 11:18:57;;;;;;;;;;;31.20;35.10;;;;;;5034371;28;19962;-63
2021/06/26 11:21:23;;;;;;;;;;;31.40;35.40;;;;;;5035094;28;19927;-63
2021/06/26 11:23:52;;;;;;;;;;;31.60;35.20;;;;;;5034072;28;20261;-63
2021/06/26 11:26:18;;;;;;;;;;;31.40;35.10;;;;;;5034492;28;19953;-63
2021/06/26 11:28:43;;;;;;;;;;;31.10;35.40;;;;;;5034872;28;20008;-63
2021/06/26 11:31:09;;;;;;;;;;;30.70;35.60;;;;;;5034557;28;20420;-62
2021/06/26 11:33:36;;;;;;;;;;;30.30;36.20;;;;;;5034749;28;19923;-63
2021/06/26 11:36:02;;;;;;;;;;;29.90;36.60;;;;;;5035004;28;19924;-62
2021/06/26 11:38:28;;;;;;;;;;;29.70;36.90;;;;;;5016292;28;19918;-63
2021/06/26 11:41:03;;;;;;;;;;;29.60;37.30;;;;;;5034879;28;19917;-62
2021/06/26 11:43:29;;;;;;;;;;;29.60;37.80;;;;;;5033856;28;19925;-63
2021/06/26 11:45:54;;;;;;;;;;;29.50;38.40;;;;;;5034892;28;20608;-63
2021/06/26 11:48:21;;;;;;;;;;;29.50;38.40;;;;;;5034216;28;19917;-63
2021/06/26 11:50:51;;;;;;;;;;;29.70;38.80;;;;;;5034314;28;20316;-63
2021/06/26 11:53:17;;;;;;;;;;;29.70;38.90;;;;;;5016661;28;19917;-63
2021/06/26 11:55:55;;;;;;;;;;;29.70;38.50;;;;;;5033913;28;19921;-63
2021/06/26 11:58:21;;;;;;;;;;;29.80;39.30;;;;;;5034164;28;19986;-63
2021/06/26 12:01:00;;;;;;;;;;;30.30;39.40;;;;;;5034043;28;19921;-63
2021/06/26 12:03:28;;;;;;;;;;;30.70;39.10;;;;;;5034221;28;19964;-63
2021/06/26 12:05:58;;;;;;;;;;;31.20;38.90;;;;;;5033750;28;19918;-63
2021/06/26 12:08:24;;;;;;;;;;;31.40;38.00;;;;;;5034042;28;20376;-63
2021/06/26 12:10:50;;;;;;;;;;;31.50;37.70;;;;;;5033400;28;19924;-63
2021/06/26 12:13:15;;;;;;;;;;;31.50;37.50;;;;;;5033832;28;20376;-64
2021/06/26 12:15:42;;;;;;;;;;;31.50;37.10;;;;;;5034073;28;19927;-63
2021/06/26 12:18:07;;;;;;;;;;;31.50;37.30;;;;;;5033342;28;19925;-63
2021/06/26 12:20:35;;;;;;;;;;;31.50;37.60;;;;;;5033699;28;19917;-63
2021/06/26 12:23:11;;;;;;;;;;;31.50;37.60;;;;;;5033946;28;19921;-63
2021/06/26 12:25:43;;;;;;;;;;;31.30;37.60;;;;;;5033423;28;19967;-63
2021/06/26 12:28:10;;;;;;;;;;;31.20;37.70;;;;;;5033696;28;20008;-63
2021/06/26 12:30:36;;;;;;;;;;;30.70;37.70;;;;;;5033578;28;19913;-63
2021/06/26 12:33:03;;;;;;;;;;;30.40;38.20;;;;;;5033787;28;20024;-63
2021/06/26 12:35:29;;;;;;;;;;;29.80;38.30;;;;;;5033734;28;19924;-63
2021/06/26 12:37:54;;;;;;;;;;;29.40;38.50;;;;;;5033065;28;20376;-62
2021/06/26 12:40:24;;;;;;;;;;;29.00;38.90;;;;;;5033488;28;20340;-62
2021/06/26 12:43:10;;;;;;;;;;;28.80;39.70;;;;;;5015457;28;19936;-63
2021/06/26 12:45:37;;;;;;;;;;;28.70;40.30;;;;;;5034218;28;20012;-65
2021/06/26 12:48:08;;;;;;;;;;;28.60;40.20;;;;;;5031748;28;21577;-67
2021/06/26 12:50:58;;;;;;;;;;;28.70;40.50;;;;;;5033518;28;19924;-64
2021/06/26 12:53:34;;;;;;;;;;;29.00;40.90;;;;;;5033460;28;19917;-64
2021/06/26 12:56:18;;;;;;;;;;;29.40;40.60;;;;;;5033332;28;19998;-65
2021/06/26 12:59:02;;;;;;;;;;;29.80;40.50;;;;;;5032805;28;19940;-65
2021/06/26 13:01:34;;;;;;;;;;;30.10;40.20;;;;;;5032780;28;19968;-64
2021/06/26 13:04:00;;;;;;;;;;;30.00;39.90;;;;;;5033156;28;19940;-64
2021/06/26 13:06:25;;;;;;;;;;;29.90;40.00;;;;;;5033214;28;20366;-64
2021/06/26 13:08:55;;;;;;;;;;;29.70;40.20;;;;;;5032347;28;19917;-65
2021/06/26 13:11:35;;;;;;;;;;;29.40;40.60;;;;;;5033102;28;20012;-65
2021/06/26 13:14:02;;;;;;;;;;;29.30;40.80;;;;;;5032530;28;19925;-65
2021/06/26 13:16:27;;;;;;;;;;;29.10;40.70;;;;;;5033100;28;19917;-65
2021/06/26 13:18:53;;;;;;;;;;;28.90;40.90;;;;;;5032320;28;20251;-64
2021/06/26 13:21:18;;;;;;;;;;;28.70;41.40;;;;;;5032885;28;19921;-64
2021/06/26 13:23:44;;;;;;;;;;;28.70;41.60;;;;;;5030605;28;19923;-64
2021/06/26 13:26:09;;;;;;;;;;;28.60;41.50;;;;;;5032378;28;19952;-63
2021/06/26 13:28:35;;;;;;;;;;;28.50;41.70;;;;;;5032689;28;20013;-64
2021/06/26 13:31:01;;;;;;;;;;;28.40;41.80;;;;;;5032694;28;19913;-64
2021/06/26 13:33:26;;;;;;;;;;;28.20;41.60;;;;;;5032174;28;19971;-64
2021/06/26 13:35:52;;;;;;;;;;;28.10;41.80;;;;;;5032469;28;19921;-64
2021/06/26 13:38:17;;;;;;;;;;;28.00;42.50;;;;;;5031885;28;19917;-64
2021/06/26 13:40:49;;;;;;;;;;;27.90;42.40;;;;;;5032508;28;19921;-64
2021/06/26 13:43:15;;;;;;;;;;;27.90;42.80;;;;;;5032509;28;19967;-64
2021/06/26 13:45:41;;;;;;;;;;;27.90;42.90;;;;;;5032292;28;19913;-64
2021/06/26 13:48:07;;;;;;;;;;;28.00;42.90;;;;;;5032016;28;20266;-64
2021/06/26 13:50:32;;;;;;;;;;;28.00;42.90;;;;;;5031883;28;20062;-64
2021/06/26 13:52:58;;;;;;;;;;;28.10;43.20;;;;;;5032221;28;19976;-64
2021/06/26 13:55:23;;;;;;;;;;;28.10;43.20;;;;;;5014376;28;19951;-64
2021/06/26 13:57:49;;;;;;;;;;;28.10;43.20;;;;;;5031575;28;20026;-64
2021/06/26 14:00:16;;;;;;;;;;;28.10;43.10;;;;;;5014377;28;19924;-64
2021/06/26 14:02:42;;;;;;;;;;;28.00;43.10;;;;;;5032193;28;19924;-64
2021/06/26 14:05:11;;;;;;;;;;;28.00;43.40;;;;;;5031622;28;19913;-64
2021/06/26 14:07:37;;;;;;;;;;;27.90;44.30;;;;;;5031792;28;19917;-63
2021/06/26 14:10:02;;;;;;;;;;;27.90;44.00;;;;;;5031576;28;19996;-65
2021/06/26 14:12:28;;;;;;;;;;;27.80;43.60;;;;;;5032121;28;20016;-63